createdAt,value
2018-05-24T00:01:18.530Z,88.90
2018-05-24T00:03:45.967Z,87.30
2018-05-24T00:06:13.407Z,86.90
2018-05-24T00:08:41.234Z,87.90
2018-05-24T00:11:08.682Z,90.20
2018-05-24T00:13:36.126Z,88.90
2018-05-24T00:16:03.597Z,89.20
2018-05-24T00:18:31.056Z,90.50
2018-05-24T00:20:58.502Z,91.10
2018-05-24T00:23:25.950Z,90.90
2018-05-24T00:25:53.410Z,91.20
2018-05-24T00:28:21.626Z,93.00
2018-05-24T00:30:49.064Z,92.90
2018-05-24T00:33:16.514Z,93.20
2018-05-24T00:35:43.966Z,93.00
2018-05-24T00:38:11.402Z,93.00
2018-05-24T00:40:38.866Z,93.10
2018-05-24T00:43:06.330Z,93.80
2018-05-24T00:45:34.545Z,94.20
2018-05-24T00:48:01.990Z,94.20
2018-05-24T00:50:29.442Z,94.70
2018-05-24T00:52:56.914Z,94.40
2018-05-24T00:55:37.108Z,93.40
2018-05-24T00:58:04.562Z,93.30
2018-05-24T01:00:32.018Z,94.00
2018-05-24T01:02:59.483Z,94.10
2018-05-24T01:05:26.934Z,95.00
2018-05-24T01:07:54.392Z,94.80
2018-05-24T01:10:22.609Z,95.20
2018-05-24T01:12:50.071Z,95.20
2018-05-24T01:15:17.546Z,94.90
2018-05-24T01:17:45.057Z,94.40
2018-05-24T01:20:13.421Z,94.20
2018-05-24T01:22:41.133Z,94.30
2018-05-24T01:25:08.579Z,94.00
2018-05-24T01:27:36.034Z,93.70
2018-05-24T01:30:03.495Z,92.50
2018-05-24T01:32:30.937Z,92.10
2018-05-24T01:34:58.386Z,92.40
2018-05-24T01:37:38.587Z,92.30
2018-05-24T01:40:06.030Z,92.30
2018-05-24T01:42:33.490Z,92.40
2018-05-24T01:45:00.938Z,92.60
2018-05-24T01:47:28.406Z,92.80
2018-05-24T01:49:56.632Z,93.10
2018-05-24T01:52:24.115Z,93.10
2018-05-24T01:54:52.313Z,94.10
2018-05-24T01:57:19.778Z,93.70
2018-05-24T01:59:47.229Z,93.90
2018-05-24T02:02:14.687Z,93.70
2018-05-24T02:04:42.135Z,93.60
2018-05-24T02:07:09.590Z,92.60
2018-05-24T02:09:37.795Z,92.80
2018-05-24T02:12:05.238Z,92.80
2018-05-24T02:14:32.690Z,92.30
2018-05-24T02:17:00.137Z,92.40
2018-05-24T02:19:27.582Z,92.50
2018-05-24T02:21:55.038Z,92.60
2018-05-24T02:24:22.483Z,92.50
2018-05-24T02:26:49.940Z,91.90
2018-05-24T02:29:18.154Z,91.30
2018-05-24T02:31:45.609Z,91.30
2018-05-24T02:34:13.038Z,91.30
2018-05-24T02:36:40.497Z,91.90
2018-05-24T02:39:07.958Z,92.20
2018-05-24T02:41:35.426Z,92.10
2018-05-24T02:44:03.618Z,91.40
2018-05-24T02:46:31.061Z,91.40
2018-05-24T02:48:58.514Z,91.70
2018-05-24T02:51:25.983Z,90.40
2018-05-24T02:53:53.418Z,91.00
2018-05-24T02:56:20.918Z,90.40
2018-05-24T02:58:48.326Z,90.30
2018-05-24T03:01:15.793Z,89.80
2018-05-24T03:03:44.006Z,90.30
2018-05-24T03:06:11.455Z,90.30
2018-05-24T03:08:38.902Z,90.60
2018-05-24T03:11:06.347Z,90.40
2018-05-24T03:13:33.800Z,90.40
2018-05-24T03:16:01.237Z,90.30
2018-05-24T03:18:28.689Z,90.10
2018-05-24T03:20:56.146Z,90.00
2018-05-24T03:23:24.359Z,90.30
2018-05-24T03:25:51.785Z,90.30
2018-05-24T03:28:19.237Z,90.00
2018-05-24T03:30:46.692Z,90.00
2018-05-24T03:33:14.194Z,89.80
2018-05-24T03:35:41.633Z,89.70
2018-05-24T03:38:09.084Z,90.30
2018-05-24T03:40:36.554Z,89.40
2018-05-24T03:43:04.056Z,89.70
2018-05-24T03:45:31.490Z,88.90
2018-05-24T03:47:59.751Z,90.00
2018-05-24T03:50:27.195Z,90.00
2018-05-24T03:52:55.416Z,90.00
2018-05-24T03:55:22.866Z,90.00
2018-05-24T03:57:50.335Z,89.50
2018-05-24T04:00:29.726Z,88.10
2018-05-24T04:03:09.001Z,88.30
2018-05-24T04:05:36.451Z,89.00
2018-05-24T04:08:03.885Z,88.90
2018-05-24T04:10:32.161Z,88.70
2018-05-24T04:12:59.619Z,88.10
2018-05-24T04:15:27.105Z,86.90
2018-05-24T04:17:54.542Z,87.50
2018-05-24T04:20:21.995Z,85.90
2018-05-24T04:22:49.443Z,87.00
2018-05-24T04:25:17.666Z,88.50
2018-05-24T04:27:45.163Z,88.50
2018-05-24T04:30:12.614Z,88.90
2018-05-24T04:32:40.056Z,87.90
2018-05-24T04:35:07.527Z,89.30
2018-05-24T04:37:34.985Z,87.30
2018-05-24T04:40:02.441Z,86.70
2018-05-24T04:42:29.900Z,88.20
2018-05-24T04:44:57.338Z,88.70
2018-05-24T04:47:24.774Z,87.70
2018-05-24T04:49:52.230Z,87.70
2018-05-24T04:52:20.443Z,86.10
2018-05-24T04:54:47.910Z,86.10
2018-05-24T04:57:15.360Z,85.90
2018-05-24T04:59:42.823Z,87.10
2018-05-24T05:02:10.280Z,86.00
2018-05-24T05:04:38.503Z,84.80
2018-05-24T05:07:05.948Z,84.80
2018-05-24T05:09:33.410Z,83.50
2018-05-24T05:12:01.639Z,84.70
2018-05-24T05:14:29.494Z,84.70
2018-05-24T05:16:56.917Z,84.10
2018-05-24T05:19:24.438Z,84.30
2018-05-24T05:21:52.626Z,83.60
2018-05-24T05:24:20.082Z,83.00
2018-05-24T05:26:47.536Z,83.50
2018-05-24T05:29:14.978Z,83.10
2018-05-24T05:31:42.467Z,81.80
2018-05-24T05:34:10.090Z,80.40
2018-05-24T05:36:37.533Z,80.00
2018-05-24T05:39:05.658Z,80.90
2018-05-24T05:41:33.102Z,80.90
2018-05-24T05:44:00.560Z,82.70
2018-05-24T05:46:28.005Z,82.70
2018-05-24T05:48:55.452Z,83.60
2018-05-24T05:51:22.996Z,83.50
2018-05-24T05:53:50.443Z,84.90
2018-05-24T05:56:17.887Z,84.60
2018-05-24T05:58:46.113Z,82.50
2018-05-24T06:01:13.538Z,82.30
2018-05-24T06:03:40.992Z,80.70
2018-05-24T06:06:08.426Z,79.50
2018-05-24T06:08:35.869Z,78.80
2018-05-24T06:11:03.316Z,79.20
2018-05-24T06:13:30.773Z,79.30
2018-05-24T06:15:58.234Z,77.20
2018-05-24T06:18:25.687Z,78.10
2018-05-24T06:20:53.172Z,77.40
2018-05-24T06:23:20.603Z,77.50
2018-05-24T06:25:48.059Z,74.90
2018-05-24T06:28:15.553Z,72.70
2018-05-24T06:30:43.032Z,72.30
2018-05-24T06:33:10.470Z,71.20
2018-05-24T06:35:37.914Z,70.10
2018-05-24T06:38:06.109Z,65.20
2018-05-24T06:40:33.618Z,65.20
2018-05-24T06:43:00.994Z,62.90
2018-05-24T06:45:28.449Z,60.90
2018-05-24T06:47:55.891Z,60.80
2018-05-24T06:50:23.344Z,60.50
2018-05-24T06:52:50.783Z,60.10
2018-05-24T06:55:18.225Z,60.50
2018-05-24T06:57:45.669Z,61.30
2018-05-24T07:00:13.109Z,63.70
2018-05-24T07:02:40.550Z,62.10
2018-05-24T07:05:08.003Z,62.80
2018-05-24T07:07:35.525Z,63.20
2018-05-24T07:10:02.954Z,63.00
2018-05-24T07:12:30.390Z,62.90
2018-05-24T07:14:57.850Z,62.60
2018-05-24T07:17:25.291Z,62.10
2018-05-24T07:19:52.734Z,63.20
2018-05-24T07:22:20.183Z,61.20
2018-05-24T07:24:47.635Z,63.00
2018-05-24T07:27:15.058Z,62.00
2018-05-24T07:29:42.502Z,62.70
2018-05-24T07:32:09.942Z,61.50
2018-05-24T07:34:37.398Z,61.30
2018-05-24T07:37:04.854Z,61.50
2018-05-24T07:39:32.330Z,60.30
2018-05-24T07:42:00.530Z,62.20
2018-05-24T07:44:27.978Z,62.30
2018-05-24T07:46:55.422Z,61.40
2018-05-24T07:49:22.878Z,62.30
2018-05-24T07:51:50.341Z,60.70
2018-05-24T07:54:17.794Z,60.00
2018-05-24T07:56:45.271Z,59.30
2018-05-24T07:59:12.726Z,58.40
2018-05-24T08:01:40.255Z,58.00
2018-05-24T08:04:07.605Z,58.70
2018-05-24T08:06:35.860Z,59.10
2018-05-24T08:09:03.307Z,58.90
2018-05-24T08:11:30.762Z,60.60
2018-05-24T08:13:58.199Z,60.10
2018-05-24T08:16:25.641Z,59.80
2018-05-24T08:18:53.114Z,60.60
2018-05-24T08:21:20.544Z,60.00
2018-05-24T08:23:48.000Z,60.90
2018-05-24T08:26:15.450Z,62.10
2018-05-24T08:28:42.903Z,63.30
2018-05-24T08:31:10.365Z,61.30
2018-05-24T08:33:37.806Z,59.50
2018-05-24T08:36:06.023Z,61.30
2018-05-24T08:38:33.466Z,61.30
2018-05-24T08:41:01.005Z,62.50
2018-05-24T08:43:28.361Z,62.30
2018-05-24T08:45:55.822Z,62.70
2018-05-24T08:48:23.252Z,63.20
2018-05-24T08:50:50.709Z,61.40
2018-05-24T08:53:18.209Z,62.10
2018-05-24T08:55:45.607Z,63.10
2018-05-24T08:58:13.054Z,62.50
2018-05-24T09:00:41.307Z,62.30
2018-05-24T09:03:08.734Z,62.20
2018-05-24T09:05:36.181Z,62.80
2018-05-24T09:08:03.637Z,63.00
2018-05-24T09:10:31.854Z,61.10
2018-05-24T09:12:59.288Z,61.00
2018-05-24T09:15:26.743Z,62.10
2018-05-24T09:17:54.173Z,61.50
2018-05-24T09:20:21.637Z,61.90
2018-05-24T09:22:49.094Z,63.30
2018-05-24T09:25:16.545Z,62.90
2018-05-24T09:27:43.994Z,62.80
2018-05-24T09:30:11.457Z,63.20
2018-05-24T09:32:39.654Z,61.10
2018-05-24T09:35:07.111Z,61.10
2018-05-24T09:37:34.552Z,59.00
2018-05-24T09:40:02.754Z,59.30
2018-05-24T09:42:30.966Z,60.70
2018-05-24T09:44:58.419Z,60.70
2018-05-24T09:47:25.857Z,59.80
2018-05-24T09:49:53.306Z,60.50
2018-05-24T09:52:20.752Z,61.00
2018-05-24T09:54:48.198Z,61.20
2018-05-24T09:57:15.653Z,59.50
2018-05-24T09:59:43.111Z,60.30
2018-05-24T10:02:11.321Z,61.00
2018-05-24T10:04:38.854Z,61.00
2018-05-24T10:07:06.222Z,60.00
2018-05-24T10:09:34.448Z,58.40
2018-05-24T10:12:01.894Z,58.30
2018-05-24T10:14:29.425Z,57.70
2018-05-24T10:16:56.802Z,57.70
2018-05-24T10:19:24.251Z,56.10
2018-05-24T10:21:51.684Z,55.60
2018-05-24T10:24:19.141Z,55.70
2018-05-24T10:26:46.582Z,55.10
2018-05-24T10:29:14.046Z,53.40
2018-05-24T10:31:41.510Z,54.30
2018-05-24T10:34:09.727Z,53.70
2018-05-24T10:36:37.927Z,53.50
2018-05-24T10:39:06.138Z,54.60
2018-05-24T10:41:33.615Z,54.60
2018-05-24T10:44:01.038Z,56.40
2018-05-24T10:46:28.486Z,56.00
2018-05-24T10:48:55.941Z,57.30
2018-05-24T10:51:23.437Z,58.20
2018-05-24T10:53:51.603Z,59.90
2018-05-24T10:56:19.057Z,59.90
2018-05-24T10:58:46.514Z,59.80
2018-05-24T11:01:14.790Z,59.80
2018-05-24T11:03:42.991Z,58.00
2018-05-24T11:06:10.443Z,58.00
2018-05-24T11:08:37.895Z,56.60
2018-05-24T11:11:05.331Z,56.70
2018-05-24T11:13:32.778Z,57.00
2018-05-24T11:16:00.227Z,56.30
2018-05-24T11:18:27.664Z,55.60
2018-05-24T11:20:55.101Z,56.80
2018-05-24T11:23:22.958Z,55.00
2018-05-24T11:25:50.422Z,54.30
2018-05-24T11:28:17.868Z,54.10
2018-05-24T11:30:45.322Z,53.30
2018-05-24T11:33:12.790Z,53.70
2018-05-24T11:35:40.278Z,53.80
2018-05-24T11:38:08.444Z,54.90
2018-05-24T11:40:35.886Z,54.90
2018-05-24T11:43:03.377Z,55.30
2018-05-24T11:45:30.802Z,56.30
2018-05-24T11:47:58.253Z,55.30
2018-05-24T11:50:25.793Z,54.90
2018-05-24T11:52:53.233Z,54.10
2018-05-24T11:55:20.667Z,53.20
2018-05-24T11:57:48.121Z,53.50
2018-05-24T12:00:15.558Z,53.00
2018-05-24T12:02:43.052Z,55.00
2018-05-24T12:05:10.523Z,54.70
2018-05-24T12:07:37.988Z,53.80
2018-05-24T12:10:05.424Z,53.50
2018-05-24T12:12:32.883Z,53.50
2018-05-24T12:15:00.305Z,53.50
2018-05-24T12:17:27.752Z,53.70
2018-05-24T12:19:55.193Z,52.40
2018-05-24T12:22:22.650Z,52.60
2018-05-24T12:24:50.088Z,54.00
2018-05-24T12:27:17.567Z,55.10
2018-05-24T12:29:45.046Z,55.00
2018-05-24T12:32:12.482Z,54.30
2018-05-24T12:34:39.920Z,54.20
2018-05-24T12:37:07.358Z,53.00
2018-05-24T12:39:34.803Z,52.40
2018-05-24T12:42:02.271Z,53.40
2018-05-24T12:44:29.718Z,54.00
2018-05-24T12:46:57.176Z,52.10
2018-05-24T12:49:24.665Z,51.80
2018-05-24T12:51:52.101Z,52.50
2018-05-24T12:54:19.570Z,52.00
2018-05-24T12:56:47.026Z,52.10
2018-05-24T12:59:14.868Z,51.80
2018-05-24T13:01:42.298Z,52.50
2018-05-24T13:04:09.782Z,51.30
2018-05-24T13:06:37.205Z,52.20
2018-05-24T13:09:05.423Z,52.50
2018-05-24T13:11:32.881Z,52.20
2018-05-24T13:14:00.314Z,52.80
2018-05-24T13:16:27.754Z,52.40
2018-05-24T13:18:55.206Z,52.10
2018-05-24T13:21:22.676Z,53.90
2018-05-24T13:23:50.530Z,53.90
2018-05-24T13:26:18.053Z,53.10
2018-05-24T13:28:45.558Z,52.90
2018-05-24T13:31:13.778Z,52.50
2018-05-24T13:33:41.202Z,52.50
2018-05-24T13:36:08.647Z,52.30
2018-05-24T13:38:36.098Z,50.90
2018-05-24T13:41:03.534Z,49.50
2018-05-24T13:43:30.965Z,48.60
2018-05-24T13:45:58.427Z,49.50
2018-05-24T13:48:25.879Z,50.60
2018-05-24T13:50:53.337Z,50.80
2018-05-24T13:53:20.795Z,51.20
2018-05-24T13:55:48.258Z,50.50
2018-05-24T13:58:16.458Z,48.80
2018-05-24T14:00:44.573Z,48.80
2018-05-24T14:03:12.946Z,48.60
2018-05-24T14:05:40.385Z,48.50
2018-05-24T14:08:08.701Z,48.10
2018-05-24T14:10:36.123Z,48.10
2018-05-24T14:13:03.673Z,48.90
2018-05-24T14:15:31.117Z,49.10
2018-05-24T14:17:58.562Z,49.60
2018-05-24T14:20:26.067Z,48.80
2018-05-24T14:22:54.295Z,50.60
2018-05-24T14:25:21.734Z,50.60
2018-05-24T14:27:49.192Z,52.00
2018-05-24T14:30:17.428Z,51.60
2018-05-24T14:32:44.890Z,51.60
2018-05-24T14:35:12.347Z,51.80
2018-05-24T14:37:39.790Z,51.30
2018-05-24T14:40:08.017Z,51.60
2018-05-24T14:42:35.470Z,51.50
2018-05-24T14:45:02.973Z,51.80
2018-05-24T14:47:31.172Z,53.30
2018-05-24T14:49:58.613Z,53.20
2018-05-24T14:52:26.069Z,52.90
2018-05-24T14:54:53.542Z,53.80
2018-05-24T14:57:21.749Z,54.40
2018-05-24T14:59:49.206Z,54.40
2018-05-24T15:02:16.692Z,54.50
2018-05-24T15:04:44.966Z,54.00
2018-05-24T15:07:12.421Z,53.70
2018-05-24T15:09:39.858Z,54.20
2018-05-24T15:12:07.313Z,54.70
2018-05-24T15:14:34.760Z,53.60
2018-05-24T15:17:02.247Z,54.00
2018-05-24T15:19:30.458Z,53.00
2018-05-24T15:21:57.910Z,53.00
2018-05-24T15:24:25.363Z,53.10
2018-05-24T15:26:52.810Z,53.40
2018-05-24T15:29:20.258Z,53.70
2018-05-24T15:31:47.715Z,55.80
2018-05-24T15:34:15.153Z,54.60
2018-05-24T15:36:42.608Z,54.40
2018-05-24T15:39:10.868Z,55.40
2018-05-24T15:41:38.308Z,55.40
2018-05-24T15:44:06.533Z,55.70
2018-05-24T15:46:33.974Z,55.60
2018-05-24T15:49:01.433Z,55.70
2018-05-24T15:51:28.888Z,57.30
2018-05-24T15:53:56.323Z,57.70
2018-05-24T15:56:23.764Z,58.20
2018-05-24T15:58:51.213Z,57.00
2018-05-24T16:01:18.653Z,57.00
2018-05-24T16:03:46.114Z,57.90
2018-05-24T16:06:14.327Z,59.10
2018-05-24T16:08:41.783Z,59.10
2018-05-24T16:11:09.217Z,58.60
2018-05-24T16:13:36.663Z,58.10
2018-05-24T16:16:04.129Z,57.00
2018-05-24T16:18:32.387Z,58.60
2018-05-24T16:20:59.826Z,58.50
2018-05-24T16:23:27.293Z,58.00
2018-05-24T16:25:55.519Z,58.70
2018-05-24T16:28:22.969Z,58.70
2018-05-24T16:30:50.414Z,59.40
2018-05-24T16:33:17.854Z,59.80
2018-05-24T16:35:45.304Z,59.60
2018-05-24T16:38:12.747Z,60.20
2018-05-24T16:40:40.193Z,60.80
2018-05-24T16:43:07.729Z,60.30
2018-05-24T16:45:35.175Z,60.40
2018-05-24T16:48:02.631Z,60.40
2018-05-24T16:50:30.074Z,61.20
2018-05-24T16:52:57.554Z,62.00
2018-05-24T16:55:25.003Z,62.20
2018-05-24T16:57:52.482Z,62.20
2018-05-24T17:00:19.918Z,62.20
2018-05-24T17:02:47.410Z,62.20
2018-05-24T17:05:14.866Z,61.80
2018-05-24T17:07:42.310Z,61.10
2018-05-24T17:10:09.761Z,61.10
2018-05-24T17:12:37.267Z,60.10
2018-05-24T17:15:04.709Z,60.00
2018-05-24T17:17:32.173Z,59.80
2018-05-24T17:20:00.367Z,58.80
2018-05-24T17:22:27.810Z,58.80
2018-05-24T17:24:55.264Z,59.20
2018-05-24T17:27:22.710Z,57.70
2018-05-24T17:29:52.795Z,58.00
2018-05-24T17:32:20.235Z,58.00
2018-05-24T17:34:47.714Z,58.20
2018-05-24T17:37:15.199Z,58.40
2018-05-24T17:39:43.420Z,59.10
2018-05-24T17:42:10.886Z,59.10
2018-05-24T17:44:39.090Z,59.40
2018-05-24T17:47:06.528Z,59.40
2018-05-24T17:49:33.983Z,59.80
2018-05-24T17:52:01.440Z,59.00
2018-05-24T17:54:28.937Z,58.90
2018-05-24T17:56:56.374Z,59.10
2018-05-24T17:59:23.821Z,59.40
2018-05-24T18:01:51.287Z,60.10
2018-05-24T18:04:18.735Z,60.70
2018-05-24T18:06:46.181Z,60.90
2018-05-24T18:09:13.636Z,61.10
2018-05-24T18:11:41.074Z,59.40
2018-05-24T18:14:08.506Z,59.00
2018-05-24T18:16:35.934Z,57.80
2018-05-24T18:19:03.380Z,55.60
2018-05-24T18:21:30.823Z,50.40
2018-05-24T18:23:58.290Z,52.20
2018-05-24T18:26:25.723Z,53.20
2018-05-24T18:28:53.161Z,53.80
2018-05-24T18:31:20.602Z,54.40
2018-05-24T18:33:48.037Z,55.20
2018-05-24T18:36:15.550Z,57.50
2018-05-24T18:38:42.939Z,57.10
2018-05-24T18:41:10.370Z,61.30
2018-05-24T18:43:37.833Z,60.60
2018-05-24T18:46:05.284Z,61.70
2018-05-24T18:48:32.758Z,65.20
2018-05-24T18:51:00.950Z,67.80
2018-05-24T18:53:28.409Z,66.90
2018-05-24T18:55:55.846Z,67.00
2018-05-24T18:58:23.311Z,71.80
2018-05-24T19:00:50.745Z,71.20
2018-05-24T19:03:18.200Z,72.40
2018-05-24T19:05:45.647Z,74.10
2018-05-24T19:08:13.131Z,73.10
2018-05-24T19:13:15.328Z,71.40
2018-05-24T19:15:42.777Z,76.90
2018-05-24T19:18:10.219Z,75.90
2018-05-24T19:20:37.678Z,78.30
2018-05-24T19:23:05.118Z,77.80
2018-05-24T19:25:32.575Z,80.50
2018-05-24T19:28:00.032Z,82.30
2018-05-24T19:30:28.262Z,80.90
2018-05-24T19:32:55.693Z,80.90
2018-05-24T19:35:23.138Z,83.70
2018-05-24T19:37:50.575Z,85.90
2018-05-24T19:40:18.039Z,85.70
2018-05-24T19:42:45.489Z,89.10
2018-05-24T19:45:13.004Z,91.10
2018-05-24T19:47:40.463Z,90.60
2018-05-24T19:50:07.927Z,91.10
2018-05-24T19:52:36.136Z,91.00
2018-05-24T19:55:03.597Z,91.30
2018-05-24T19:57:31.051Z,92.30
2018-05-24T19:59:58.496Z,92.90
2018-05-24T20:02:25.925Z,92.70
2018-05-24T20:04:53.371Z,93.10
2018-05-24T20:07:20.803Z,93.30
2018-05-24T20:09:48.242Z,92.80
2018-05-24T20:12:15.688Z,93.50
2018-05-24T20:14:43.143Z,92.40
2018-05-24T20:17:10.573Z,91.80
2018-05-24T20:19:38.013Z,92.30
2018-05-24T20:22:05.459Z,91.90
2018-05-24T20:24:32.905Z,92.20
2018-05-24T20:27:00.381Z,91.70
2018-05-24T20:29:27.818Z,92.30
2018-05-24T20:31:55.267Z,91.60
2018-05-24T20:34:23.469Z,91.50
2018-05-24T20:36:50.926Z,91.20
2018-05-24T20:39:18.398Z,91.50
2018-05-24T20:41:45.873Z,91.70
2018-05-24T20:44:13.285Z,91.10
2018-05-24T20:46:40.741Z,90.20
2018-05-24T20:49:08.950Z,90.40
2018-05-24T20:51:36.390Z,90.40
2018-05-24T20:54:03.831Z,90.50
2018-05-24T20:56:31.287Z,90.30
2018-05-24T20:58:58.742Z,90.90
2018-05-24T21:01:26.347Z,90.20
2018-05-24T21:03:53.786Z,90.40
2018-05-24T21:06:21.250Z,90.70
2018-05-24T21:08:48.707Z,89.70
2018-05-24T21:11:16.147Z,89.80
2018-05-24T21:13:43.631Z,90.00
2018-05-24T21:16:11.049Z,89.40
2018-05-24T21:18:38.572Z,89.60
2018-05-24T21:21:06.051Z,89.10
2018-05-24T21:23:33.520Z,90.10
2018-05-24T21:26:01.726Z,91.30
2018-05-24T21:28:29.171Z,91.30
2018-05-24T21:30:56.618Z,91.80
2018-05-24T21:33:24.055Z,91.70
2018-05-24T21:35:51.519Z,91.30
2018-05-24T21:38:18.959Z,91.40
2018-05-24T21:40:46.408Z,91.50
2018-05-24T21:43:13.862Z,91.40
2018-05-24T21:45:41.297Z,91.10
2018-05-24T21:48:08.731Z,90.70
2018-05-24T21:50:36.170Z,90.90
2018-05-24T21:53:03.634Z,91.00
2018-05-24T21:55:31.088Z,91.00
2018-05-24T21:57:59.294Z,91.10
2018-05-24T22:00:26.737Z,91.10
2018-05-24T22:02:54.964Z,90.80
2018-05-24T22:05:23.175Z,91.00
2018-05-24T22:07:50.618Z,91.00
2018-05-24T22:10:18.110Z,90.70
2018-05-24T22:12:46.353Z,91.00
2018-05-24T22:15:13.806Z,91.00
2018-05-24T22:17:42.931Z,90.40
2018-05-24T22:20:10.444Z,90.40
2018-05-24T22:22:38.642Z,90.70
2018-05-24T22:25:06.094Z,90.70
2018-05-24T22:27:33.537Z,90.20
2018-05-24T22:30:01.004Z,90.10
2018-05-24T22:32:28.453Z,90.20
2018-05-24T22:34:55.909Z,89.00
2018-05-24T22:37:24.109Z,89.80
2018-05-24T22:39:51.582Z,89.80
2018-05-24T22:42:19.041Z,90.20
2018-05-24T22:44:46.487Z,87.80
2018-05-24T22:47:14.700Z,88.80
2018-05-24T22:49:42.137Z,88.80
2018-05-24T22:52:09.562Z,88.00
2018-05-24T22:54:37.050Z,88.00
2018-05-24T22:57:04.489Z,88.20
2018-05-24T22:59:31.951Z,89.20
2018-05-24T23:01:59.369Z,88.70
2018-05-24T23:04:26.816Z,89.60
2018-05-24T23:06:54.257Z,90.80
2018-05-24T23:09:22.460Z,90.80
2018-05-24T23:11:50.670Z,90.30
2018-05-24T23:14:18.108Z,90.20
2018-05-24T23:16:45.562Z,90.00
2018-05-24T23:19:13.035Z,90.00
2018-05-24T23:21:40.470Z,88.40
2018-05-24T23:24:07.907Z,88.30
2018-05-24T23:26:35.345Z,88.70
2018-05-24T23:29:02.794Z,88.70
2018-05-24T23:31:30.233Z,87.30
2018-05-24T23:33:57.691Z,87.90
2018-05-24T23:36:25.118Z,87.50
2018-05-24T23:38:52.576Z,88.10
2018-05-24T23:41:20.010Z,88.90
2018-05-24T23:43:47.447Z,88.80
2018-05-24T23:46:14.898Z,88.50
2018-05-24T23:48:42.330Z,88.50
2018-05-24T23:51:09.770Z,88.30
2018-05-24T23:53:37.241Z,88.90
2018-05-24T23:56:04.686Z,89.20
2018-05-24T23:58:32.894Z,89.50
